sensor_id;sensor_type;location;lat;lon;timestamp;temperature;humidity
11229;DHT22;5671;47.936;8.716;2023-07-13T00:00:41;16.60;77.20
11229;DHT22;5671;47.936;8.716;2023-07-13T00:03:08;16.60;77.30
11229;DHT22;5671;47.936;8.716;2023-07-13T00:05:35;16.50;77.80
11229;DHT22;5671;47.936;8.716;2023-07-13T00:08:03;16.50;76.80
11229;DHT22;5671;47.936;8.716;2023-07-13T00:10:30;16.50;77.00
11229;DHT22;5671;47.936;8.716;2023-07-13T00:12:57;16.50;76.90
11229;DHT22;5671;47.936;8.716;2023-07-13T00:15:25;16.50;77.10
11229;DHT22;5671;47.936;8.716;2023-07-13T00:17:53;16.50;77.70
11229;DHT22;5671;47.936;8.716;2023-07-13T00:20:21;16.40;77.80
11229;DHT22;5671;47.936;8.716;2023-07-13T00:22:50;16.40;77.80
11229;DHT22;5671;47.936;8.716;2023-07-13T00:25:20;16.40;77.80
11229;DHT22;5671;47.936;8.716;2023-07-13T00:27:47;16.30;77.60
11229;DHT22;5671;47.936;8.716;2023-07-13T00:30:15;16.30;77.80
11229;DHT22;5671;47.936;8.716;2023-07-13T00:32:42;16.30;77.10
11229;DHT22;5671;47.936;8.716;2023-07-13T00:35:09;16.30;77.30
11229;DHT22;5671;47.936;8.716;2023-07-13T00:37:36;16.30;77.20
11229;DHT22;5671;47.936;8.716;2023-07-13T00:40:03;16.20;77.00
11229;DHT22;5671;47.936;8.716;2023-07-13T00:42:32;16.20;77.70
11229;DHT22;5671;47.936;8.716;2023-07-13T00:45:02;16.20;77.60
11229;DHT22;5671;47.936;8.716;2023-07-13T00:47:29;16.20;77.80
11229;DHT22;5671;47.936;8.716;2023-07-13T00:49:56;16.20;77.70
11229;DHT22;5671;47.936;8.716;2023-07-13T00:52:23;16.10;78.70
11229;DHT22;5671;47.936;8.716;2023-07-13T00:54:50;16.10;79.00
11229;DHT22;5671;47.936;8.716;2023-07-13T00:57:19;16.10;78.30
11229;DHT22;5671;47.936;8.716;2023-07-13T00:59:50;16.10;78.00
11229;DHT22;5671;47.936;8.716;2023-07-13T01:02:19;16.10;78.80
11229;DHT22;5671;47.936;8.716;2023-07-13T01:04:47;16.00;78.70
11229;DHT22;5671;47.936;8.716;2023-07-13T01:07:14;16.00;78.90
11229;DHT22;5671;47.936;8.716;2023-07-13T01:09:41;16.00;78.10
11229;DHT22;5671;47.936;8.716;2023-07-13T01:12:08;16.00;78.90
11229;DHT22;5671;47.936;8.716;2023-07-13T01:14:35;15.90;77.80
11229;DHT22;5671;47.936;8.716;2023-07-13T01:17:04;15.90;78.90
11229;DHT22;5671;47.936;8.716;2023-07-13T01:19:35;15.90;79.00
11229;DHT22;5671;47.936;8.716;2023-07-13T01:22:07;15.90;78.70
11229;DHT22;5671;47.936;8.716;2023-07-13T01:24:37;15.80;79.10
11229;DHT22;5671;47.936;8.716;2023-07-13T01:27:06;15.80;79.60
11229;DHT22;5671;47.936;8.716;2023-07-13T01:29:35;15.80;79.90
11229;DHT22;5671;47.936;8.716;2023-07-13T01:32:08;15.80;79.60
11229;DHT22;5671;47.936;8.716;2023-07-13T01:34:35;15.80;79.20
11229;DHT22;5671;47.936;8.716;2023-07-13T01:37:04;15.80;79.00
11229;DHT22;5671;47.936;8.716;2023-07-13T01:39:32;15.80;79.00
11229;DHT22;5671;47.936;8.716;2023-07-13T01:41:59;15.80;78.70
11229;DHT22;5671;47.936;8.716;2023-07-13T01:44:26;15.80;80.30
11229;DHT22;5671;47.936;8.716;2023-07-13T01:46:53;15.80;79.30
11229;DHT22;5671;47.936;8.716;2023-07-13T01:49:20;15.80;80.40
11229;DHT22;5671;47.936;8.716;2023-07-13T01:51:47;15.70;79.80
11229;DHT22;5671;47.936;8.716;2023-07-13T01:54:13;15.80;80.20
11229;DHT22;5671;47.936;8.716;2023-07-13T01:56:42;15.80;79.90
11229;DHT22;5671;47.936;8.716;2023-07-13T01:59:09;15.70;79.80
11229;DHT22;5671;47.936;8.716;2023-07-13T02:01:36;15.70;78.90
11229;DHT22;5671;47.936;8.716;2023-07-13T02:04:03;15.70;79.40
11229;DHT22;5671;47.936;8.716;2023-07-13T02:06:30;15.80;79.00
11229;DHT22;5671;47.936;8.716;2023-07-13T02:08:57;15.70;78.60
11229;DHT22;5671;47.936;8.716;2023-07-13T02:11:24;15.80;79.00
11229;DHT22;5671;47.936;8.716;2023-07-13T02:13:59;15.80;80.30
11229;DHT22;5671;47.936;8.716;2023-07-13T02:16:26;15.80;80.40
11229;DHT22;5671;47.936;8.716;2023-07-13T02:18:53;15.80;80.50
11229;DHT22;5671;47.936;8.716;2023-07-13T02:21:21;15.70;80.50
11229;DHT22;5671;47.936;8.716;2023-07-13T02:23:48;15.70;79.90
11229;DHT22;5671;47.936;8.716;2023-07-13T02:26:14;15.80;79.20
11229;DHT22;5671;47.936;8.716;2023-07-13T02:28:41;15.80;79.40
11229;DHT22;5671;47.936;8.716;2023-07-13T02:31:12;15.70;79.80
11229;DHT22;5671;47.936;8.716;2023-07-13T02:33:39;15.70;79.60
11229;DHT22;5671;47.936;8.716;2023-07-13T02:36:07;15.70;79.80
11229;DHT22;5671;47.936;8.716;2023-07-13T02:38:34;15.70;79.20
11229;DHT22;5671;47.936;8.716;2023-07-13T02:41:02;15.70;79.10
11229;DHT22;5671;47.936;8.716;2023-07-13T02:43:29;15.70;78.40
11229;DHT22;5671;47.936;8.716;2023-07-13T02:45:56;15.70;80.70
11229;DHT22;5671;47.936;8.716;2023-07-13T02:48:27;15.70;79.70
11229;DHT22;5671;47.936;8.716;2023-07-13T02:50:54;15.70;79.90
11229;DHT22;5671;47.936;8.716;2023-07-13T02:53:21;15.70;79.50
11229;DHT22;5671;47.936;8.716;2023-07-13T02:55:47;15.70;79.20
11229;DHT22;5671;47.936;8.716;2023-07-13T02:58:14;15.70;80.20
11229;DHT22;5671;47.936;8.716;2023-07-13T03:00:42;15.70;79.70
11229;DHT22;5671;47.936;8.716;2023-07-13T03:03:09;15.70;79.20
11229;DHT22;5671;47.936;8.716;2023-07-13T03:05:37;15.70;79.00
11229;DHT22;5671;47.936;8.716;2023-07-13T03:08:04;15.70;78.60
11229;DHT22;5671;47.936;8.716;2023-07-13T03:10:31;15.70;78.80
11229;DHT22;5671;47.936;8.716;2023-07-13T03:12:58;15.60;80.20
11229;DHT22;5671;47.936;8.716;2023-07-13T03:15:25;15.60;80.90
11229;DHT22;5671;47.936;8.716;2023-07-13T03:17:52;15.60;80.30
11229;DHT22;5671;47.936;8.716;2023-07-13T03:20:19;15.60;81.80
11229;DHT22;5671;47.936;8.716;2023-07-13T03:22:48;15.60;81.00
11229;DHT22;5671;47.936;8.716;2023-07-13T03:25:15;15.60;80.30
11229;DHT22;5671;47.936;8.716;2023-07-13T03:27:41;15.60;79.60
11229;DHT22;5671;47.936;8.716;2023-07-13T03:30:09;15.60;79.40
11229;DHT22;5671;47.936;8.716;2023-07-13T03:32:36;15.50;78.90
11229;DHT22;5671;47.936;8.716;2023-07-13T03:35:03;15.50;78.60
11229;DHT22;5671;47.936;8.716;2023-07-13T03:37:30;15.50;78.50
11229;DHT22;5671;47.936;8.716;2023-07-13T03:39:58;15.50;78.40
11229;DHT22;5671;47.936;8.716;2023-07-13T03:42:25;15.50;78.60
11229;DHT22;5671;47.936;8.716;2023-07-13T03:44:52;15.50;77.40
11229;DHT22;5671;47.936;8.716;2023-07-13T03:47:19;15.40;77.70
11229;DHT22;5671;47.936;8.716;2023-07-13T03:49:46;15.40;77.40
11229;DHT22;5671;47.936;8.716;2023-07-13T03:52:12;15.40;77.50
11229;DHT22;5671;47.936;8.716;2023-07-13T03:54:39;15.30;77.80
11229;DHT22;5671;47.936;8.716;2023-07-13T03:57:08;15.30;77.30
11229;DHT22;5671;47.936;8.716;2023-07-13T03:59:35;15.30;77.00
11229;DHT22;5671;47.936;8.716;2023-07-13T04:02:02;15.30;76.80
11229;DHT22;5671;47.936;8.716;2023-07-13T04:04:29;15.30;76.70
11229;DHT22;5671;47.936;8.716;2023-07-13T04:06:57;15.30;76.50
11229;DHT22;5671;47.936;8.716;2023-07-13T04:09:24;15.20;76.40
11229;DHT22;5671;47.936;8.716;2023-07-13T04:11:50;15.20;76.20
11229;DHT22;5671;47.936;8.716;2023-07-13T04:14:19;15.20;77.00
11229;DHT22;5671;47.936;8.716;2023-07-13T04:16:45;15.20;77.50
11229;DHT22;5671;47.936;8.716;2023-07-13T04:19:13;15.20;77.70
11229;DHT22;5671;47.936;8.716;2023-07-13T04:21:39;15.20;77.80
11229;DHT22;5671;47.936;8.716;2023-07-13T04:24:06;15.20;78.30
11229;DHT22;5671;47.936;8.716;2023-07-13T04:26:34;15.20;78.20
11229;DHT22;5671;47.936;8.716;2023-07-13T04:29:04;15.20;78.40
11229;DHT22;5671;47.936;8.716;2023-07-13T04:31:32;15.20;77.90
11229;DHT22;5671;47.936;8.716;2023-07-13T04:33:59;15.30;77.10
11229;DHT22;5671;47.936;8.716;2023-07-13T04:36:26;15.30;77.20
11229;DHT22;5671;47.936;8.716;2023-07-13T04:38:53;15.30;78.50
11229;DHT22;5671;47.936;8.716;2023-07-13T04:41:21;15.30;78.90
11229;DHT22;5671;47.936;8.716;2023-07-13T04:43:48;15.30;78.60
11229;DHT22;5671;47.936;8.716;2023-07-13T04:46:16;15.30;76.30
11229;DHT22;5671;47.936;8.716;2023-07-13T04:48:46;15.30;76.40
11229;DHT22;5671;47.936;8.716;2023-07-13T04:51:13;15.30;77.30
11229;DHT22;5671;47.936;8.716;2023-07-13T04:57:10;15.30;76.20
11229;DHT22;5671;47.936;8.716;2023-07-13T04:59:37;15.30;77.30
11229;DHT22;5671;47.936;8.716;2023-07-13T05:02:04;15.30;77.70
11229;DHT22;5671;47.936;8.716;2023-07-13T05:04:32;15.30;77.30
11229;DHT22;5671;47.936;8.716;2023-07-13T05:06:59;15.30;77.30
11229;DHT22;5671;47.936;8.716;2023-07-13T05:09:29;15.30;76.60
11229;DHT22;5671;47.936;8.716;2023-07-13T05:11:55;15.30;74.80
11229;DHT22;5671;47.936;8.716;2023-07-13T05:14:22;15.30;75.60
11229;DHT22;5671;47.936;8.716;2023-07-13T05:16:49;15.30;75.70
11229;DHT22;5671;47.936;8.716;2023-07-13T05:19:16;15.30;75.60
11229;DHT22;5671;47.936;8.716;2023-07-13T05:21:44;15.30;76.30
11229;DHT22;5671;47.936;8.716;2023-07-13T05:24:11;15.30;75.60
11229;DHT22;5671;47.936;8.716;2023-07-13T05:26:38;15.40;75.20
11229;DHT22;5671;47.936;8.716;2023-07-13T05:29:04;15.40;75.20
11229;DHT22;5671;47.936;8.716;2023-07-13T05:31:31;15.40;75.10
11229;DHT22;5671;47.936;8.716;2023-07-13T05:33:58;15.50;75.20
11229;DHT22;5671;47.936;8.716;2023-07-13T05:36:25;15.50;76.30
11229;DHT22;5671;47.936;8.716;2023-07-13T05:38:53;15.50;76.30
11229;DHT22;5671;47.936;8.716;2023-07-13T05:41:20;15.50;75.50
11229;DHT22;5671;47.936;8.716;2023-07-13T05:43:46;15.60;74.80
11229;DHT22;5671;47.936;8.716;2023-07-13T05:46:13;15.60;76.30
11229;DHT22;5671;47.936;8.716;2023-07-13T05:48:40;15.70;75.30
11229;DHT22;5671;47.936;8.716;2023-07-13T05:51:07;15.70;76.60
11229;DHT22;5671;47.936;8.716;2023-07-13T05:53:35;15.80;76.10
11229;DHT22;5671;47.936;8.716;2023-07-13T05:56:04;15.80;75.30
11229;DHT22;5671;47.936;8.716;2023-07-13T05:58:31;15.80;74.40
11229;DHT22;5671;47.936;8.716;2023-07-13T06:01:00;15.90;74.10
11229;DHT22;5671;47.936;8.716;2023-07-13T06:03:27;15.90;73.70
11229;DHT22;5671;47.936;8.716;2023-07-13T06:05:54;16.00;73.40
11229;DHT22;5671;47.936;8.716;2023-07-13T06:08:20;16.00;72.80
11229;DHT22;5671;47.936;8.716;2023-07-13T06:10:47;16.00;71.40
11229;DHT22;5671;47.936;8.716;2023-07-13T06:13:16;16.10;70.00
11229;DHT22;5671;47.936;8.716;2023-07-13T06:15:48;16.10;70.20
11229;DHT22;5671;47.936;8.716;2023-07-13T06:18:15;16.20;70.50
11229;DHT22;5671;47.936;8.716;2023-07-13T06:20:42;16.20;70.30
11229;DHT22;5671;47.936;8.716;2023-07-13T06:23:08;16.30;69.50
11229;DHT22;5671;47.936;8.716;2023-07-13T06:25:35;16.30;69.30
11229;DHT22;5671;47.936;8.716;2023-07-13T06:28:02;16.30;72.80
11229;DHT22;5671;47.936;8.716;2023-07-13T06:30:30;16.40;73.60
11229;DHT22;5671;47.936;8.716;2023-07-13T06:32:57;16.40;71.80
11229;DHT22;5671;47.936;8.716;2023-07-13T06:35:24;16.40;70.80
11229;DHT22;5671;47.936;8.716;2023-07-13T06:37:51;16.50;69.20
11229;DHT22;5671;47.936;8.716;2023-07-13T06:40:18;16.50;69.20
11229;DHT22;5671;47.936;8.716;2023-07-13T06:42:44;16.50;67.10
11229;DHT22;5671;47.936;8.716;2023-07-13T06:45:11;16.60;67.30
11229;DHT22;5671;47.936;8.716;2023-07-13T06:47:39;16.60;67.40
11229;DHT22;5671;47.936;8.716;2023-07-13T06:50:07;16.70;65.40
11229;DHT22;5671;47.936;8.716;2023-07-13T06:52:34;16.70;66.20
11229;DHT22;5671;47.936;8.716;2023-07-13T06:55:01;16.70;66.70
11229;DHT22;5671;47.936;8.716;2023-07-13T06:57:28;16.70;66.40
11229;DHT22;5671;47.936;8.716;2023-07-13T06:59:54;16.80;66.80
11229;DHT22;5671;47.936;8.716;2023-07-13T07:02:21;16.80;66.00
11229;DHT22;5671;47.936;8.716;2023-07-13T07:04:49;16.80;65.10
11229;DHT22;5671;47.936;8.716;2023-07-13T07:07:16;16.80;64.60
11229;DHT22;5671;47.936;8.716;2023-07-13T07:09:43;16.90;65.80
11229;DHT22;5671;47.936;8.716;2023-07-13T07:12:10;16.90;66.30
11229;DHT22;5671;47.936;8.716;2023-07-13T07:14:37;16.90;65.40
11229;DHT22;5671;47.936;8.716;2023-07-13T07:17:03;17.00;65.60
11229;DHT22;5671;47.936;8.716;2023-07-13T07:19:30;17.00;65.80
11229;DHT22;5671;47.936;8.716;2023-07-13T07:21:58;17.00;64.20
11229;DHT22;5671;47.936;8.716;2023-07-13T07:24:25;17.00;64.30
11229;DHT22;5671;47.936;8.716;2023-07-13T07:26:52;17.10;65.90
11229;DHT22;5671;47.936;8.716;2023-07-13T07:29:19;17.20;64.50
11229;DHT22;5671;47.936;8.716;2023-07-13T07:31:46;17.30;64.50
11229;DHT22;5671;47.936;8.716;2023-07-13T07:34:13;17.30;65.30
11229;DHT22;5671;47.936;8.716;2023-07-13T07:36:39;17.40;62.80
11229;DHT22;5671;47.936;8.716;2023-07-13T07:39:07;17.50;64.50
11229;DHT22;5671;47.936;8.716;2023-07-13T07:41:34;17.60;64.60
11229;DHT22;5671;47.936;8.716;2023-07-13T07:44:01;17.60;63.30
11229;DHT22;5671;47.936;8.716;2023-07-13T07:46:29;17.70;63.00
11229;DHT22;5671;47.936;8.716;2023-07-13T07:48:56;17.70;63.00
11229;DHT22;5671;47.936;8.716;2023-07-13T07:51:23;17.70;62.20
11229;DHT22;5671;47.936;8.716;2023-07-13T07:53:53;17.70;60.50
11229;DHT22;5671;47.936;8.716;2023-07-13T07:56:21;17.70;60.00
11229;DHT22;5671;47.936;8.716;2023-07-13T07:58:48;17.80;61.30
11229;DHT22;5671;47.936;8.716;2023-07-13T08:01:15;17.90;60.40
11229;DHT22;5671;47.936;8.716;2023-07-13T08:03:42;18.00;60.30
11229;DHT22;5671;47.936;8.716;2023-07-13T08:06:09;18.00;59.70
11229;DHT22;5671;47.936;8.716;2023-07-13T08:08:35;18.10;60.40
11229;DHT22;5671;47.936;8.716;2023-07-13T08:11:03;18.20;59.30
11229;DHT22;5671;47.936;8.716;2023-07-13T08:13:31;18.20;58.80
11229;DHT22;5671;47.936;8.716;2023-07-13T08:15:58;18.30;58.90
11229;DHT22;5671;47.936;8.716;2023-07-13T08:18:25;18.30;59.40
11229;DHT22;5671;47.936;8.716;2023-07-13T08:20:53;18.40;58.10
11229;DHT22;5671;47.936;8.716;2023-07-13T08:23:22;18.40;59.70
11229;DHT22;5671;47.936;8.716;2023-07-13T08:25:51;18.50;61.10
11229;DHT22;5671;47.936;8.716;2023-07-13T08:28:19;18.50;61.10
11229;DHT22;5671;47.936;8.716;2023-07-13T08:30:48;18.70;62.70
11229;DHT22;5671;47.936;8.716;2023-07-13T08:33:15;18.70;61.20
11229;DHT22;5671;47.936;8.716;2023-07-13T08:35:42;18.80;61.50
11229;DHT22;5671;47.936;8.716;2023-07-13T08:38:08;18.90;59.00
11229;DHT22;5671;47.936;8.716;2023-07-13T08:40:35;18.90;60.60
11229;DHT22;5671;47.936;8.716;2023-07-13T08:43:02;18.90;59.10
11229;DHT22;5671;47.936;8.716;2023-07-13T08:45:33;18.80;60.00
11229;DHT22;5671;47.936;8.716;2023-07-13T08:48:10;18.80;59.00
11229;DHT22;5671;47.936;8.716;2023-07-13T08:50:51;18.80;58.40
11229;DHT22;5671;47.936;8.716;2023-07-13T08:53:19;18.70;58.30
11229;DHT22;5671;47.936;8.716;2023-07-13T08:55:46;18.60;59.40
11229;DHT22;5671;47.936;8.716;2023-07-13T08:58:14;18.60;58.80
11229;DHT22;5671;47.936;8.716;2023-07-13T09:00:48;18.60;58.10
11229;DHT22;5671;47.936;8.716;2023-07-13T09:03:23;18.70;59.40
11229;DHT22;5671;47.936;8.716;2023-07-13T09:05:54;18.80;57.40
11229;DHT22;5671;47.936;8.716;2023-07-13T09:08:34;19.00;57.10
11229;DHT22;5671;47.936;8.716;2023-07-13T09:11:13;19.00;58.20
11229;DHT22;5671;47.936;8.716;2023-07-13T09:13:50;19.00;58.10
11229;DHT22;5671;47.936;8.716;2023-07-13T09:16:21;19.10;58.30
11229;DHT22;5671;47.936;8.716;2023-07-13T09:18:51;19.20;58.50
11229;DHT22;5671;47.936;8.716;2023-07-13T09:21:23;19.40;57.60
11229;DHT22;5671;47.936;8.716;2023-07-13T09:23:53;19.50;57.30
11229;DHT22;5671;47.936;8.716;2023-07-13T09:26:23;19.60;57.50
11229;DHT22;5671;47.936;8.716;2023-07-13T09:28:53;19.60;59.80
11229;DHT22;5671;47.936;8.716;2023-07-13T09:31:26;19.70;57.10
11229;DHT22;5671;47.936;8.716;2023-07-13T09:33:56;19.80;56.90
11229;DHT22;5671;47.936;8.716;2023-07-13T09:36:25;19.80;56.30
11229;DHT22;5671;47.936;8.716;2023-07-13T09:38:59;20.00;57.10
11229;DHT22;5671;47.936;8.716;2023-07-13T09:41:36;20.10;56.60
11229;DHT22;5671;47.936;8.716;2023-07-13T09:44:11;20.20;54.90
11229;DHT22;5671;47.936;8.716;2023-07-13T09:46:39;20.30;54.30
11229;DHT22;5671;47.936;8.716;2023-07-13T09:49:09;20.30;53.90
11229;DHT22;5671;47.936;8.716;2023-07-13T09:51:37;20.30;55.30
11229;DHT22;5671;47.936;8.716;2023-07-13T09:54:04;20.30;54.60
11229;DHT22;5671;47.936;8.716;2023-07-13T09:56:31;20.40;54.60
11229;DHT22;5671;47.936;8.716;2023-07-13T09:58:58;20.40;55.10
11229;DHT22;5671;47.936;8.716;2023-07-13T10:01:37;20.30;54.90
11229;DHT22;5671;47.936;8.716;2023-07-13T10:04:12;20.40;56.40
11229;DHT22;5671;47.936;8.716;2023-07-13T10:07:12;20.30;55.00
11229;DHT22;5671;47.936;8.716;2023-07-13T10:09:39;20.20;55.20
11229;DHT22;5671;47.936;8.716;2023-07-13T10:12:14;20.10;55.10
11229;DHT22;5671;47.936;8.716;2023-07-13T10:14:42;20.00;55.80
11229;DHT22;5671;47.936;8.716;2023-07-13T10:17:13;19.90;57.00
11229;DHT22;5671;47.936;8.716;2023-07-13T10:19:43;19.90;57.10
11229;DHT22;5671;47.936;8.716;2023-07-13T10:22:16;19.80;58.00
11229;DHT22;5671;47.936;8.716;2023-07-13T10:24:47;19.80;57.40
11229;DHT22;5671;47.936;8.716;2023-07-13T10:27:19;19.80;59.20
11229;DHT22;5671;47.936;8.716;2023-07-13T10:29:54;19.80;59.50
11229;DHT22;5671;47.936;8.716;2023-07-13T10:32:24;19.80;56.80
11229;DHT22;5671;47.936;8.716;2023-07-13T10:34:53;19.70;58.10
11229;DHT22;5671;47.936;8.716;2023-07-13T10:37:26;19.70;59.30
11229;DHT22;5671;47.936;8.716;2023-07-13T10:39:55;19.70;60.60
11229;DHT22;5671;47.936;8.716;2023-07-13T10:42:28;19.70;59.40
11229;DHT22;5671;47.936;8.716;2023-07-13T10:44:55;19.70;61.10
11229;DHT22;5671;47.936;8.716;2023-07-13T10:47:24;19.70;60.60
11229;DHT22;5671;47.936;8.716;2023-07-13T10:49:57;19.70;60.80
11229;DHT22;5671;47.936;8.716;2023-07-13T10:52:46;19.70;60.10
11229;DHT22;5671;47.936;8.716;2023-07-13T10:55:33;19.70;60.50
11229;DHT22;5671;47.936;8.716;2023-07-13T10:58:02;19.60;59.70
11229;DHT22;5671;47.936;8.716;2023-07-13T11:00:31;19.50;60.10
11229;DHT22;5671;47.936;8.716;2023-07-13T11:03:00;19.60;60.10
11229;DHT22;5671;47.936;8.716;2023-07-13T11:05:31;19.60;60.10
11229;DHT22;5671;47.936;8.716;2023-07-13T11:08:04;19.60;60.40
11229;DHT22;5671;47.936;8.716;2023-07-13T11:10:50;19.60;60.00
11229;DHT22;5671;47.936;8.716;2023-07-13T11:13:56;19.50;60.40
11229;DHT22;5671;47.936;8.716;2023-07-13T11:16:42;19.50;59.60
11229;DHT22;5671;47.936;8.716;2023-07-13T11:19:39;19.50;59.70
11229;DHT22;5671;47.936;8.716;2023-07-13T11:22:25;19.50;60.20
11229;DHT22;5671;47.936;8.716;2023-07-13T11:25:06;19.50;60.40
11229;DHT22;5671;47.936;8.716;2023-07-13T11:27:51;19.50;59.80
11229;DHT22;5671;47.936;8.716;2023-07-13T11:30:25;19.40;61.00
11229;DHT22;5671;47.936;8.716;2023-07-13T11:33:10;19.40;61.10
11229;DHT22;5671;47.936;8.716;2023-07-13T11:35:44;19.50;61.70
11229;DHT22;5671;47.936;8.716;2023-07-13T11:38:18;19.50;64.10
11229;DHT22;5671;47.936;8.716;2023-07-13T11:40:47;19.50;60.90
11229;DHT22;5671;47.936;8.716;2023-07-13T11:43:16;19.50;61.30
11229;DHT22;5671;47.936;8.716;2023-07-13T11:45:43;19.50;60.90
11229;DHT22;5671;47.936;8.716;2023-07-13T11:48:25;19.40;63.10
11229;DHT22;5671;47.936;8.716;2023-07-13T11:50:56;19.30;63.70
11229;DHT22;5671;47.936;8.716;2023-07-13T11:53:33;19.30;64.40
11229;DHT22;5671;47.936;8.716;2023-07-13T11:56:03;19.30;63.90
11229;DHT22;5671;47.936;8.716;2023-07-13T11:58:30;19.30;66.20
11229;DHT22;5671;47.936;8.716;2023-07-13T12:01:00;19.30;66.40
11229;DHT22;5671;47.936;8.716;2023-07-13T12:03:30;19.40;65.90
11229;DHT22;5671;47.936;8.716;2023-07-13T12:06:01;19.40;66.30
11229;DHT22;5671;47.936;8.716;2023-07-13T12:08:37;19.40;65.40
11229;DHT22;5671;47.936;8.716;2023-07-13T12:11:15;19.50;63.90
11229;DHT22;5671;47.936;8.716;2023-07-13T12:13:44;19.50;63.90
11229;DHT22;5671;47.936;8.716;2023-07-13T12:16:14;19.50;64.00
11229;DHT22;5671;47.936;8.716;2023-07-13T12:18:44;19.60;65.70
11229;DHT22;5671;47.936;8.716;2023-07-13T12:21:18;19.70;66.20
11229;DHT22;5671;47.936;8.716;2023-07-13T12:23:48;19.70;65.40
11229;DHT22;5671;47.936;8.716;2023-07-13T12:26:17;20.10;63.60
11229;DHT22;5671;47.936;8.716;2023-07-13T12:28:46;20.60;63.00
11229;DHT22;5671;47.936;8.716;2023-07-13T12:31:30;20.60;62.60
11229;DHT22;5671;47.936;8.716;2023-07-13T12:34:05;20.50;63.50
11229;DHT22;5671;47.936;8.716;2023-07-13T12:36:34;20.50;61.40
11229;DHT22;5671;47.936;8.716;2023-07-13T12:39:13;20.50;61.30
11229;DHT22;5671;47.936;8.716;2023-07-13T12:41:41;20.50;58.80
11229;DHT22;5671;47.936;8.716;2023-07-13T12:44:11;20.50;58.90
11229;DHT22;5671;47.936;8.716;2023-07-13T12:46:38;20.60;59.30
11229;DHT22;5671;47.936;8.716;2023-07-13T12:49:06;20.60;60.00
11229;DHT22;5671;47.936;8.716;2023-07-13T12:51:33;20.60;60.50
11229;DHT22;5671;47.936;8.716;2023-07-13T12:54:15;20.70;61.90
11229;DHT22;5671;47.936;8.716;2023-07-13T12:56:43;21.00;60.50
11229;DHT22;5671;47.936;8.716;2023-07-13T12:59:17;21.40;58.60
11229;DHT22;5671;47.936;8.716;2023-07-13T13:01:46;21.90;58.70
11229;DHT22;5671;47.936;8.716;2023-07-13T13:04:13;22.20;58.00
11229;DHT22;5671;47.936;8.716;2023-07-13T13:06:40;22.50;56.50
11229;DHT22;5671;47.936;8.716;2023-07-13T13:09:13;22.50;55.10
11229;DHT22;5671;47.936;8.716;2023-07-13T13:11:40;22.30;55.50
11229;DHT22;5671;47.936;8.716;2023-07-13T13:14:07;22.30;56.40
11229;DHT22;5671;47.936;8.716;2023-07-13T13:16:37;22.10;55.70
11229;DHT22;5671;47.936;8.716;2023-07-13T13:19:15;21.90;55.80
11229;DHT22;5671;47.936;8.716;2023-07-13T13:21:43;21.70;56.50
11229;DHT22;5671;47.936;8.716;2023-07-13T13:24:14;21.50;56.20
11229;DHT22;5671;47.936;8.716;2023-07-13T13:26:43;21.40;57.60
11229;DHT22;5671;47.936;8.716;2023-07-13T13:29:12;21.30;58.00
11229;DHT22;5671;47.936;8.716;2023-07-13T13:31:40;21.20;58.10
11229;DHT22;5671;47.936;8.716;2023-07-13T13:34:09;21.20;58.80
11229;DHT22;5671;47.936;8.716;2023-07-13T13:36:37;21.10;58.10
11229;DHT22;5671;47.936;8.716;2023-07-13T13:39:19;21.10;57.70
11229;DHT22;5671;47.936;8.716;2023-07-13T13:41:47;21.00;59.00
11229;DHT22;5671;47.936;8.716;2023-07-13T13:44:17;21.00;58.40
11229;DHT22;5671;47.936;8.716;2023-07-13T13:46:48;21.00;58.90
11229;DHT22;5671;47.936;8.716;2023-07-13T13:49:19;21.40;57.70
11229;DHT22;5671;47.936;8.716;2023-07-13T13:51:49;21.80;57.40
11229;DHT22;5671;47.936;8.716;2023-07-13T13:54:19;22.10;56.80
11229;DHT22;5671;47.936;8.716;2023-07-13T13:56:48;22.30;56.20
11229;DHT22;5671;47.936;8.716;2023-07-13T13:59:15;22.50;56.70
11229;DHT22;5671;47.936;8.716;2023-07-13T14:01:44;22.80;58.00
11229;DHT22;5671;47.936;8.716;2023-07-13T14:04:15;23.10;57.70
11229;DHT22;5671;47.936;8.716;2023-07-13T14:06:43;23.50;55.40
11229;DHT22;5671;47.936;8.716;2023-07-13T14:09:11;23.60;52.80
11229;DHT22;5671;47.936;8.716;2023-07-13T14:11:42;23.70;53.90
11229;DHT22;5671;47.936;8.716;2023-07-13T14:14:14;23.60;54.10
11229;DHT22;5671;47.936;8.716;2023-07-13T14:16:41;23.60;54.50
11229;DHT22;5671;47.936;8.716;2023-07-13T14:19:10;23.50;53.60
11229;DHT22;5671;47.936;8.716;2023-07-13T14:21:39;23.20;51.30
11229;DHT22;5671;47.936;8.716;2023-07-13T14:24:06;23.10;51.90
11229;DHT22;5671;47.936;8.716;2023-07-13T14:26:37;23.50;52.40
11229;DHT22;5671;47.936;8.716;2023-07-13T14:29:12;23.70;51.40
11229;DHT22;5671;47.936;8.716;2023-07-13T14:31:40;23.70;53.00
11229;DHT22;5671;47.936;8.716;2023-07-13T14:34:07;23.80;53.10
11229;DHT22;5671;47.936;8.716;2023-07-13T14:36:38;23.40;52.40
11229;DHT22;5671;47.936;8.716;2023-07-13T14:39:11;23.70;53.00
11229;DHT22;5671;47.936;8.716;2023-07-13T14:41:38;24.10;52.60
11229;DHT22;5671;47.936;8.716;2023-07-13T14:44:11;23.80;51.90
11229;DHT22;5671;47.936;8.716;2023-07-13T14:46:38;23.70;51.50
11229;DHT22;5671;47.936;8.716;2023-07-13T14:49:06;23.50;52.20
11229;DHT22;5671;47.936;8.716;2023-07-13T14:51:34;23.60;51.20
11229;DHT22;5671;47.936;8.716;2023-07-13T14:54:05;23.30;51.40
11229;DHT22;5671;47.936;8.716;2023-07-13T14:56:32;23.70;51.70
11229;DHT22;5671;47.936;8.716;2023-07-13T14:58:59;23.90;51.30
11229;DHT22;5671;47.936;8.716;2023-07-13T15:01:28;24.10;50.80
11229;DHT22;5671;47.936;8.716;2023-07-13T15:03:56;24.40;51.70
11229;DHT22;5671;47.936;8.716;2023-07-13T15:06:24;24.50;50.30
11229;DHT22;5671;47.936;8.716;2023-07-13T15:08:50;24.70;42.80
11229;DHT22;5671;47.936;8.716;2023-07-13T15:11:25;24.80;40.90
11229;DHT22;5671;47.936;8.716;2023-07-13T15:13:52;24.90;38.60
11229;DHT22;5671;47.936;8.716;2023-07-13T15:16:22;25.00;37.60
11229;DHT22;5671;47.936;8.716;2023-07-13T15:18:50;25.00;36.20
11229;DHT22;5671;47.936;8.716;2023-07-13T15:21:20;25.10;35.90
11229;DHT22;5671;47.936;8.716;2023-07-13T15:23:48;25.20;36.40
11229;DHT22;5671;47.936;8.716;2023-07-13T15:26:16;25.30;39.70
11229;DHT22;5671;47.936;8.716;2023-07-13T15:28:45;25.30;35.80
11229;DHT22;5671;47.936;8.716;2023-07-13T15:31:19;25.20;34.50
11229;DHT22;5671;47.936;8.716;2023-07-13T15:36:51;25.30;37.30
11229;DHT22;5671;47.936;8.716;2023-07-13T15:39:18;25.10;34.80
11229;DHT22;5671;47.936;8.716;2023-07-13T15:41:46;24.60;37.10
11229;DHT22;5671;47.936;8.716;2023-07-13T15:44:24;24.40;35.20
11229;DHT22;5671;47.936;8.716;2023-07-13T15:46:52;24.10;37.00
11229;DHT22;5671;47.936;8.716;2023-07-13T15:49:19;23.80;37.10
11229;DHT22;5671;47.936;8.716;2023-07-13T15:51:46;23.60;37.40
11229;DHT22;5671;47.936;8.716;2023-07-13T15:54:16;23.90;37.90
11229;DHT22;5671;47.936;8.716;2023-07-13T15:56:43;23.70;38.30
11229;DHT22;5671;47.936;8.716;2023-07-13T15:59:11;23.80;39.60
11229;DHT22;5671;47.936;8.716;2023-07-13T16:01:41;23.80;38.70
11229;DHT22;5671;47.936;8.716;2023-07-13T16:04:08;23.60;39.20